createdAt,value
2019-03-08T00:00:01.652Z,99790.25
2019-03-08T00:01:08.953Z,99786.28
2019-03-08T00:02:14.170Z,99780.81
2019-03-08T00:03:19.518Z,99796.94
2019-03-08T00:04:24.575Z,99794.61
2019-03-08T00:05:29.745Z,99787.14
2019-03-08T00:06:34.875Z,99790.64
2019-03-08T00:07:39.837Z,99792.67
2019-03-08T00:08:45.200Z,99786.36
2019-03-08T00:09:50.218Z,99796.00
2019-03-08T00:10:55.492Z,99791.05
2019-03-08T00:12:00.638Z,99798.70
2019-03-08T00:13:05.872Z,99802.04
2019-03-08T00:14:11.255Z,99804.07
2019-03-08T00:15:16.518Z,99814.33
2019-03-08T00:16:21.586Z,99809.70
2019-03-08T00:17:26.837Z,99810.41
2019-03-08T00:18:31.958Z,99812.70
2019-03-08T00:19:36.918Z,99807.70
2019-03-08T00:20:42.303Z,99817.47
2019-03-08T00:21:47.372Z,99820.91
2019-03-08T00:22:52.548Z,99822.88
2019-03-08T00:23:57.523Z,99824.82
2019-03-08T00:25:02.694Z,99825.08
2019-03-08T00:26:07.824Z,99817.84
2019-03-08T00:27:13.642Z,99830.36
2019-03-08T00:28:18.657Z,99824.64
2019-03-08T00:29:23.735Z,99835.34
2019-03-08T00:30:28.900Z,99828.33
2019-03-08T00:31:33.875Z,99833.20
2019-03-08T00:32:39.095Z,99832.30
2019-03-08T00:33:44.214Z,99837.40
2019-03-08T00:34:49.206Z,99836.64
2019-03-08T00:35:54.418Z,99842.88
2019-03-08T00:36:59.690Z,99843.16
2019-03-08T00:38:04.791Z,99841.48
2019-03-08T00:39:10.197Z,99846.91
2019-03-08T00:40:15.315Z,99849.36
2019-03-08T00:41:20.446Z,99843.50
2019-03-08T00:42:25.680Z,99857.72
2019-03-08T00:43:30.752Z,99854.73
2019-03-08T00:44:35.922Z,99858.72
2019-03-08T00:45:40.992Z,99861.56
2019-03-08T00:46:46.016Z,99844.70
2019-03-08T00:47:51.072Z,99862.31
2019-03-08T00:48:56.100Z,99862.31
2019-03-08T00:50:01.195Z,99854.73
2019-03-08T00:51:06.240Z,99862.03
2019-03-08T00:52:11.668Z,99858.22
2019-03-08T00:53:16.803Z,99852.44
2019-03-08T00:54:22.029Z,99872.06
2019-03-08T00:55:27.074Z,99858.33
2019-03-08T00:56:32.331Z,99869.29
2019-03-08T00:57:37.849Z,99871.17
2019-03-08T00:58:42.901Z,99880.80
2019-03-08T00:59:47.907Z,99868.23
2019-03-08T01:00:53.000Z,99873.05
2019-03-08T01:01:58.193Z,99874.09
2019-03-08T01:03:03.540Z,99881.88
2019-03-08T01:04:08.515Z,99882.39
2019-03-08T01:05:14.373Z,99882.88
2019-03-08T01:06:19.460Z,99877.58
2019-03-08T01:07:24.851Z,99889.15
2019-03-08T01:08:29.821Z,99900.11
2019-03-08T01:09:35.293Z,99895.48
2019-03-08T01:10:40.463Z,99895.48
2019-03-08T01:11:45.469Z,99897.02
2019-03-08T01:12:50.625Z,99897.02
2019-03-08T01:13:55.688Z,99896.53
2019-03-08T01:15:00.758Z,99907.77
2019-03-08T01:16:05.870Z,99903.08
2019-03-08T01:17:10.989Z,99907.90
2019-03-08T01:18:16.064Z,99910.75
2019-03-08T01:19:21.388Z,99905.97
2019-03-08T01:20:26.545Z,99911.11
2019-03-08T01:21:31.607Z,99907.20
2019-03-08T01:22:37.010Z,99913.91
2019-03-08T01:23:42.229Z,99910.77
2019-03-08T01:24:47.150Z,99916.55
2019-03-08T01:25:52.288Z,99919.88
2019-03-08T01:26:57.315Z,99928.32
2019-03-08T01:28:05.182Z,99924.83
2019-03-08T01:29:10.457Z,99918.56
2019-03-08T01:30:15.592Z,99926.67
2019-03-08T01:31:20.708Z,99935.39
2019-03-08T01:32:25.680Z,99927.73
2019-03-08T01:33:30.721Z,99929.66
2019-03-08T01:34:36.069Z,99936.29
2019-03-08T01:35:41.178Z,99930.02
2019-03-08T01:36:46.194Z,99948.37
2019-03-08T01:37:51.638Z,99933.28
2019-03-08T01:38:56.578Z,99941.75
2019-03-08T01:40:01.779Z,99940.75
2019-03-08T01:41:06.979Z,99940.75
2019-03-08T01:42:12.244Z,99942.08
2019-03-08T01:43:17.493Z,99943.56
2019-03-08T01:44:23.339Z,99951.51
2019-03-08T01:45:28.504Z,99946.49
2019-03-08T01:46:33.857Z,99949.63
2019-03-08T01:47:38.932Z,99949.19
2019-03-08T01:48:44.336Z,99943.69
2019-03-08T01:49:49.679Z,99956.45
2019-03-08T01:50:55.014Z,99941.96
2019-03-08T01:52:00.389Z,99941.96
2019-03-08T01:53:05.762Z,99946.98
2019-03-08T01:54:10.747Z,99953.25
2019-03-08T01:55:16.106Z,99951.72
2019-03-08T01:56:21.263Z,99952.84
2019-03-08T01:57:26.231Z,99958.47
2019-03-08T01:58:31.313Z,99958.47
2019-03-08T01:59:36.616Z,99960.79
2019-03-08T02:00:42.005Z,99962.92
2019-03-08T02:01:47.411Z,99956.45
2019-03-08T02:02:52.428Z,99964.41
2019-03-08T02:03:57.482Z,99964.41
2019-03-08T02:05:02.671Z,99969.83
2019-03-08T02:06:07.711Z,99979.74
2019-03-08T02:07:12.851Z,99972.27
2019-03-08T02:08:17.836Z,99975.08
2019-03-08T02:09:22.912Z,99974.36
2019-03-08T02:10:28.147Z,99982.03
2019-03-08T02:11:33.257Z,99981.42
2019-03-08T02:12:38.674Z,99977.78
2019-03-08T02:13:43.997Z,99985.97
2019-03-08T02:14:48.999Z,99979.82
2019-03-08T02:15:54.316Z,99986.93
2019-03-08T02:16:59.274Z,99984.92
2019-03-08T02:18:04.386Z,99986.84
2019-03-08T02:19:09.524Z,99985.32
2019-03-08T02:20:17.567Z,99985.95
2019-03-08T02:21:22.680Z,99982.74
2019-03-08T02:22:27.853Z,99982.30
2019-03-08T02:23:32.878Z,99985.22
2019-03-08T02:24:37.895Z,99975.88
2019-03-08T02:25:43.048Z,99978.67
2019-03-08T02:26:48.181Z,99986.41
2019-03-08T02:27:53.482Z,99978.66
2019-03-08T02:28:58.469Z,99990.30
2019-03-08T02:30:03.673Z,99983.47
2019-03-08T02:31:09.105Z,99984.92
2019-03-08T02:32:14.308Z,99984.08
2019-03-08T02:33:19.357Z,99981.22
2019-03-08T02:34:24.457Z,99993.22
2019-03-08T02:35:29.539Z,99993.22
2019-03-08T02:36:34.892Z,99992.23
2019-03-08T02:37:40.015Z,99986.45
2019-03-08T02:38:45.368Z,99994.88
2019-03-08T02:39:50.419Z,99989.09
2019-03-08T02:40:55.424Z,99999.20
2019-03-08T02:42:00.560Z,99995.11
2019-03-08T02:43:10.579Z,99990.22
2019-03-08T02:44:15.720Z,99999.09
2019-03-08T02:45:20.846Z,99999.09
2019-03-08T02:46:26.202Z,99997.52
2019-03-08T02:47:31.299Z,100006.47
2019-03-08T02:48:36.302Z,99996.84
2019-03-08T02:49:41.676Z,100002.97
2019-03-08T02:50:46.874Z,100005.14
2019-03-08T02:51:52.102Z,100013.36
2019-03-08T02:52:57.446Z,100013.41
2019-03-08T02:54:02.463Z,100015.38
2019-03-08T02:55:07.604Z,100010.70
2019-03-08T02:56:12.885Z,100017.33
2019-03-08T02:57:17.998Z,100024.80
2019-03-08T02:58:23.024Z,100023.11
2019-03-08T02:59:28.143Z,100021.62
2019-03-08T03:00:43.518Z,100026.92
2019-03-08T03:01:53.163Z,100039.69
2019-03-08T03:02:58.117Z,100058.02
2019-03-08T03:04:03.172Z,100077.66
2019-03-08T03:05:08.407Z,100071.58
2019-03-08T03:06:13.425Z,100076.03
2019-03-08T03:07:18.475Z,100080.27
2019-03-08T03:08:23.471Z,100074.06
2019-03-08T03:09:28.435Z,100074.06
2019-03-08T03:10:33.810Z,100086.14
2019-03-08T03:11:38.841Z,100086.14
2019-03-08T03:12:44.239Z,100090.97
2019-03-08T03:13:49.540Z,100089.43
2019-03-08T03:14:54.518Z,100088.73
2019-03-08T03:15:59.956Z,100084.45
2019-03-08T03:17:04.981Z,100088.64
2019-03-08T03:18:10.170Z,100090.80
2019-03-08T03:19:16.010Z,100093.45
2019-03-08T03:20:21.418Z,100093.45
2019-03-08T03:21:26.536Z,100100.06
2019-03-08T03:22:31.625Z,100091.43
2019-03-08T03:23:37.011Z,100104.25
2019-03-08T03:24:41.961Z,100108.48
2019-03-08T03:25:47.006Z,100108.48
2019-03-08T03:26:52.345Z,100107.64
2019-03-08T03:27:57.433Z,100112.60
2019-03-08T03:29:02.407Z,100112.60
2019-03-08T03:30:07.955Z,100116.57
2019-03-08T03:31:12.948Z,100116.57
2019-03-08T03:32:18.209Z,100120.88
2019-03-08T03:33:23.503Z,100123.88
2019-03-08T03:34:28.707Z,100123.88
2019-03-08T03:35:33.967Z,100119.55
2019-03-08T03:36:38.994Z,100128.59
2019-03-08T03:37:44.632Z,100128.70
2019-03-08T03:38:50.014Z,100126.89
2019-03-08T03:39:55.284Z,100130.72
2019-03-08T03:41:00.401Z,100130.86
2019-03-08T03:42:05.713Z,100135.42
2019-03-08T03:43:11.447Z,100132.30
2019-03-08T03:44:16.846Z,100131.94
2019-03-08T03:45:22.931Z,100137.11
2019-03-08T03:46:28.079Z,100137.11
2019-03-08T03:47:33.227Z,100137.22
2019-03-08T03:48:38.245Z,100144.75
2019-03-08T03:49:43.515Z,100133.95
2019-03-08T03:50:48.681Z,100150.77
2019-03-08T03:51:53.735Z,100150.89
2019-03-08T03:52:58.791Z,100150.89
2019-03-08T03:54:03.883Z,100153.53
2019-03-08T03:55:09.600Z,100153.05
2019-03-08T03:56:14.613Z,100154.86
2019-03-08T03:57:19.730Z,100154.16
2019-03-08T03:58:25.042Z,100160.41
2019-03-08T03:59:30.207Z,100159.56
2019-03-08T04:00:35.657Z,100157.06
2019-03-08T04:01:46.050Z,100158.14
2019-03-08T04:02:51.219Z,100150.39
2019-03-08T04:03:56.516Z,100150.39
2019-03-08T04:05:01.574Z,100169.13
2019-03-08T04:06:06.866Z,100169.02
2019-03-08T04:07:12.104Z,100166.37
2019-03-08T04:08:17.199Z,100178.25
2019-03-08T04:09:22.223Z,100178.25
2019-03-08T04:10:27.377Z,100170.94
2019-03-08T04:11:32.647Z,100177.88
2019-03-08T04:12:38.119Z,100183.53
2019-03-08T04:13:43.215Z,100190.48
2019-03-08T04:14:48.321Z,100190.15
2019-03-08T04:15:53.484Z,100183.87
2019-03-08T04:16:58.551Z,100190.73
2019-03-08T04:18:03.579Z,100190.89
2019-03-08T04:19:08.927Z,100197.61
2019-03-08T04:20:14.608Z,100198.09
2019-03-08T04:21:20.008Z,100192.47
2019-03-08T04:22:25.177Z,100202.20
2019-03-08T04:23:30.216Z,100198.75
2019-03-08T04:24:35.254Z,100208.71
2019-03-08T04:25:40.315Z,100214.63
2019-03-08T04:26:45.281Z,100214.63
2019-03-08T04:27:50.637Z,100212.94
2019-03-08T04:28:55.911Z,100225.22
2019-03-08T04:30:00.898Z,100218.85
2019-03-08T04:31:05.965Z,100222.83
2019-03-08T04:32:10.995Z,100222.83
2019-03-08T04:33:15.936Z,100224.22
2019-03-08T04:34:20.944Z,100224.22
2019-03-08T04:35:26.081Z,100222.90
2019-03-08T04:36:31.228Z,100231.20
2019-03-08T04:37:36.495Z,100231.20
2019-03-08T04:38:41.558Z,100235.55
2019-03-08T04:39:46.569Z,100233.37
2019-03-08T04:40:51.685Z,100236.50
2019-03-08T04:41:56.801Z,100235.06
2019-03-08T04:43:01.839Z,100240.58
2019-03-08T04:44:06.914Z,100241.76
2019-03-08T04:45:12.215Z,100245.14
2019-03-08T04:46:17.369Z,100252.60
2019-03-08T04:47:22.628Z,100254.63
2019-03-08T04:48:27.805Z,100254.63
2019-03-08T04:49:32.977Z,100257.75
2019-03-08T04:50:37.977Z,100254.14
2019-03-08T04:51:43.175Z,100261.46
2019-03-08T04:52:48.280Z,100263.16
2019-03-08T04:53:53.447Z,100261.46
2019-03-08T04:54:58.550Z,100265.91
2019-03-08T04:56:03.527Z,100264.33
2019-03-08T04:57:08.521Z,100264.84
2019-03-08T04:58:14.067Z,100272.16
2019-03-08T04:59:19.349Z,100272.16
2019-03-08T05:00:24.407Z,100268.41
2019-03-08T05:01:29.399Z,100244.37
2019-03-08T05:02:34.449Z,100244.37
2019-03-08T05:03:40.029Z,100252.64
2019-03-08T05:04:44.989Z,100261.91
2019-03-08T05:05:50.345Z,100261.28
2019-03-08T05:06:55.487Z,100264.77
2019-03-08T05:08:00.570Z,100265.14
2019-03-08T05:09:07.040Z,100273.19
2019-03-08T05:10:13.588Z,100269.22
2019-03-08T05:11:18.820Z,100273.45
2019-03-08T05:12:24.293Z,100281.53
2019-03-08T05:13:29.337Z,100274.55
2019-03-08T05:14:34.358Z,100281.65
2019-03-08T05:15:39.561Z,100279.48
2019-03-08T05:16:44.708Z,100278.30
2019-03-08T05:17:49.737Z,100288.52
2019-03-08T05:18:54.804Z,100274.11
2019-03-08T05:19:59.891Z,100283.95
2019-03-08T05:21:04.971Z,100283.37
2019-03-08T05:22:10.131Z,100282.78
2019-03-08T05:23:15.189Z,100274.25
2019-03-08T05:24:20.286Z,100284.61
2019-03-08T05:25:25.453Z,100292.88
2019-03-08T05:26:30.501Z,100292.88
2019-03-08T05:27:35.817Z,100297.33
2019-03-08T05:28:41.157Z,100297.70
2019-03-08T05:29:46.424Z,100310.45
2019-03-08T05:30:51.480Z,100305.86
2019-03-08T05:31:56.566Z,100306.85
2019-03-08T05:33:01.933Z,100317.77
2019-03-08T05:34:07.113Z,100314.79
2019-03-08T05:35:13.485Z,100317.77
2019-03-08T05:36:18.449Z,100323.06
2019-03-08T05:37:23.562Z,100334.98
2019-03-08T05:38:28.498Z,100328.98
2019-03-08T05:39:33.861Z,100336.55
2019-03-08T05:40:38.957Z,100328.49
2019-03-08T05:41:44.015Z,100336.95
2019-03-08T05:42:48.954Z,100343.19
2019-03-08T05:43:53.985Z,100347.64
2019-03-08T05:44:59.367Z,100343.30
2019-03-08T05:46:04.528Z,100344.63
2019-03-08T05:47:09.574Z,100344.63
2019-03-08T05:48:14.584Z,100350.28
2019-03-08T05:49:19.871Z,100359.17
2019-03-08T05:50:24.811Z,100357.52
2019-03-08T05:51:29.888Z,100358.95
2019-03-08T05:52:34.836Z,100368.83
2019-03-08T05:53:40.020Z,100368.83
2019-03-08T05:54:45.246Z,100371.95
2019-03-08T05:55:50.515Z,100371.95
2019-03-08T05:56:55.559Z,100383.37
2019-03-08T05:58:01.033Z,100383.37
2019-03-08T05:59:06.075Z,100382.53
2019-03-08T06:00:11.548Z,100387.82
2019-03-08T06:01:16.536Z,100393.96
2019-03-08T06:02:21.578Z,100392.75
2019-03-08T06:03:26.659Z,100391.90
2019-03-08T06:04:31.905Z,100388.42
2019-03-08T06:05:36.980Z,100388.42
2019-03-08T06:06:41.937Z,100396.96
2019-03-08T06:07:47.315Z,100409.23
2019-03-08T06:08:52.244Z,100410.93
2019-03-08T06:09:57.655Z,100408.28
2019-03-08T06:11:03.318Z,100412.59
2019-03-08T06:12:08.412Z,100418.73
2019-03-08T06:13:13.444Z,100424.87
2019-03-08T06:14:18.836Z,100431.59
2019-03-08T06:15:24.288Z,100427.63
2019-03-08T06:16:29.336Z,100427.63
2019-03-08T06:17:34.445Z,100439.30
2019-03-08T06:18:39.456Z,100439.77
2019-03-08T06:19:44.704Z,100453.00
2019-03-08T06:20:49.727Z,100451.57
2019-03-08T06:21:54.665Z,100455.41
2019-03-08T06:23:00.266Z,100459.27
2019-03-08T06:24:05.576Z,100463.94
2019-03-08T06:25:10.963Z,100462.52
2019-03-08T06:26:16.282Z,100459.73
2019-03-08T06:27:21.300Z,100467.42
2019-03-08T06:28:26.952Z,100473.32
2019-03-08T06:29:32.259Z,100473.32
2019-03-08T06:30:37.625Z,100480.30
2019-03-08T06:31:42.946Z,100479.36
2019-03-08T06:32:48.602Z,100486.68
2019-03-08T06:33:53.915Z,100486.58
2019-03-08T06:34:59.220Z,100491.87
2019-03-08T06:36:04.884Z,100495.84
2019-03-08T06:37:10.556Z,100490.65
2019-03-08T06:38:15.702Z,100495.84
2019-03-08T06:39:21.024Z,100501.13
2019-03-08T06:40:25.982Z,100502.08
2019-03-08T06:41:31.269Z,100502.08
2019-03-08T06:42:36.743Z,100508.22
2019-03-08T06:43:45.400Z,100507.98
2019-03-08T06:44:49.161Z,100516.41
2019-03-08T06:45:54.272Z,100516.41
2019-03-08T06:46:59.358Z,100521.80
2019-03-08T06:48:04.672Z,100520.85
2019-03-08T06:49:09.849Z,100524.45
2019-03-08T06:50:15.000Z,100523.61
2019-03-08T06:51:20.016Z,100532.28
2019-03-08T06:52:25.518Z,100527.09
2019-03-08T06:53:30.600Z,100540.36
2019-03-08T06:54:35.626Z,100547.45
2019-03-08T06:55:40.763Z,100553.08
2019-03-08T06:56:45.836Z,100555.73
2019-03-08T06:58:03.560Z,100555.73
2019-03-08T06:59:19.288Z,100554.06
2019-03-08T07:00:57.797Z,100556.71
2019-03-08T07:02:03.367Z,100563.20
2019-03-08T07:03:08.650Z,100563.09
2019-03-08T07:04:13.998Z,100570.42
2019-03-08T07:05:19.092Z,100570.42
2019-03-08T07:06:24.167Z,100570.79
2019-03-08T07:07:29.152Z,100575.95
2019-03-08T07:08:34.225Z,100576.93
2019-03-08T07:09:39.399Z,100582.93
2019-03-08T07:10:44.441Z,100582.83
2019-03-08T07:11:49.478Z,100594.60
2019-03-08T07:13:02.741Z,100587.51
2019-03-08T07:14:01.623Z,100596.91
2019-03-08T07:15:07.197Z,100602.20
2019-03-08T07:16:13.870Z,100609.41
2019-03-08T07:17:20.565Z,100608.45
2019-03-08T07:18:25.661Z,100609.67
2019-03-08T07:19:30.616Z,100610.02
2019-03-08T07:20:57.993Z,100610.02
2019-03-08T07:22:07.488Z,100618.22
2019-03-08T07:23:40.751Z,100628.81
2019-03-08T07:25:20.001Z,100626.87
2019-03-08T07:26:45.663Z,100630.72
2019-03-08T07:28:12.616Z,100622.06
2019-03-08T07:29:31.341Z,100631.80
2019-03-08T07:30:45.291Z,100646.50
2019-03-08T07:31:59.466Z,100653.86
2019-03-08T07:33:16.412Z,100653.86
2019-03-08T07:34:49.544Z,100652.53
2019-03-08T07:36:07.208Z,100649.25
2019-03-08T07:37:43.146Z,100663.34
2019-03-08T07:39:10.184Z,100663.34
2019-03-08T07:40:49.284Z,100674.09
2019-03-08T07:42:04.516Z,100670.33
2019-03-08T07:43:21.947Z,100679.46
2019-03-08T07:44:44.364Z,100684.76
2019-03-08T07:45:56.823Z,100687.41
2019-03-08T07:47:17.604Z,100688.97
2019-03-08T07:48:40.478Z,100691.31
2019-03-08T07:49:52.055Z,100691.31
2019-03-08T07:51:17.591Z,100697.69
2019-03-08T07:52:28.607Z,100700.95
2019-03-08T07:53:46.046Z,100698.80
2019-03-08T07:55:12.017Z,100706.01
2019-03-08T07:56:25.557Z,100703.15
2019-03-08T07:57:55.284Z,100704.23
2019-03-08T07:59:09.100Z,100716.73
2019-03-08T08:00:32.023Z,100716.73
2019-03-08T08:01:55.611Z,100716.73
2019-03-08T08:03:25.700Z,100723.97
2019-03-08T08:04:41.758Z,100710.48
2019-03-08T08:05:58.083Z,100710.48
2019-03-08T08:07:08.943Z,100736.39
2019-03-08T08:08:21.909Z,100738.09
2019-03-08T08:09:44.559Z,100733.13
2019-03-08T08:11:07.215Z,100736.77
2019-03-08T08:12:23.413Z,100739.99
2019-03-08T08:13:33.393Z,100737.95
2019-03-08T08:15:00.466Z,100748.55
2019-03-08T08:16:36.405Z,100746.86
2019-03-08T08:17:58.779Z,100745.42
2019-03-08T08:19:22.815Z,100750.83
2019-03-08T08:20:55.841Z,100756.50
2019-03-08T08:22:18.514Z,100754.46
2019-03-08T08:23:45.509Z,100755.17
2019-03-08T08:25:15.548Z,100759.89
2019-03-08T08:26:33.208Z,100770.39
2019-03-08T08:28:06.469Z,100771.09
2019-03-08T08:29:34.930Z,100797.60
2019-03-08T08:30:59.075Z,100790.84
2019-03-08T08:32:23.858Z,100800.12
2019-03-08T08:33:36.721Z,100784.09
2019-03-08T08:35:06.613Z,100797.09
2019-03-08T08:36:36.565Z,100790.70
2019-03-08T08:38:03.812Z,100796.11
2019-03-08T08:39:27.182Z,100800.31
2019-03-08T08:40:43.171Z,100793.55
2019-03-08T08:42:25.466Z,100797.19
2019-03-08T08:43:48.138Z,100802.48
2019-03-08T08:44:59.515Z,100806.09
2019-03-08T08:46:13.502Z,100809.68
2019-03-08T08:47:27.728Z,100812.33
2019-03-08T08:48:52.042Z,100808.22
2019-03-08T08:50:14.776Z,100813.41
2019-03-08T08:51:25.134Z,100818.00
2019-03-08T08:52:48.690Z,100822.78
2019-03-08T08:54:03.490Z,100818.81
2019-03-08T08:55:27.510Z,100819.19
2019-03-08T08:56:50.488Z,100826.19
2019-03-08T08:58:17.519Z,100826.90
2019-03-08T08:59:38.673Z,100823.67
2019-03-08T09:00:52.419Z,100825.72
2019-03-08T09:02:11.946Z,100832.11
2019-03-08T09:03:34.657Z,100836.08
2019-03-08T09:04:55.406Z,100836.55
2019-03-08T09:06:08.772Z,100839.11
2019-03-08T09:07:19.226Z,100850.65
2019-03-08T09:08:33.226Z,100843.56
2019-03-08T09:09:53.719Z,100850.42
2019-03-08T09:11:19.567Z,100847.55
2019-03-08T09:12:42.530Z,100852.12
2019-03-08T09:14:12.189Z,100851.32
2019-03-08T09:15:27.238Z,100840.72
2019-03-08T09:16:54.115Z,100847.95
2019-03-08T09:18:21.199Z,100847.95
2019-03-08T09:19:41.769Z,100850.13
2019-03-08T09:21:08.570Z,100854.11
2019-03-08T09:22:21.595Z,100846.26
2019-03-08T09:23:36.134Z,100849.63
2019-03-08T09:24:46.277Z,100854.45
2019-03-08T09:26:01.183Z,100853.50
2019-03-08T09:27:28.075Z,100855.20
2019-03-08T09:28:42.444Z,100861.21
2019-03-08T09:29:56.272Z,100868.22
2019-03-08T09:31:20.472Z,100864.48
2019-03-08T09:32:33.459Z,100869.06
2019-03-08T09:33:48.487Z,100879.53
2019-03-08T09:35:05.492Z,100879.91
2019-03-08T09:36:17.056Z,100876.41
2019-03-08T09:37:33.316Z,100881.23
2019-03-08T09:39:00.216Z,100885.48
2019-03-08T09:40:26.945Z,100891.77
2019-03-08T09:41:49.517Z,100889.62
2019-03-08T09:43:00.122Z,100903.97
2019-03-08T09:44:26.453Z,100901.20
2019-03-08T09:45:53.834Z,100904.47
2019-03-08T09:47:16.401Z,100900.35
2019-03-08T09:48:48.225Z,100903.50
2019-03-08T09:50:11.894Z,100908.09
2019-03-08T09:51:24.205Z,100910.73
2019-03-08T09:52:47.762Z,100910.02
2019-03-08T09:54:00.168Z,100916.88
2019-03-08T09:55:27.140Z,100919.53
2019-03-08T09:56:49.935Z,100922.09
2019-03-08T09:58:13.983Z,100920.38
2019-03-08T09:59:56.167Z,100923.28
2019-03-08T10:01:17.153Z,100933.08
2019-03-08T10:02:42.512Z,100927.27
2019-03-08T10:03:57.447Z,100927.28
2019-03-08T10:05:16.105Z,100928.70
2019-03-08T10:06:42.687Z,100933.54
2019-03-08T10:07:54.048Z,100931.36
2019-03-08T10:09:36.390Z,100925.34
2019-03-08T10:11:06.164Z,100933.45
2019-03-08T10:12:41.963Z,100933.08
2019-03-08T10:14:04.481Z,100937.64
2019-03-08T10:15:27.282Z,100936.31
2019-03-08T10:16:51.395Z,100938.97
2019-03-08T10:18:13.930Z,100940.20
2019-03-08T10:19:36.693Z,100949.99
2019-03-08T10:21:02.298Z,100955.14
2019-03-08T10:22:15.936Z,100948.50
2019-03-08T10:23:31.544Z,100957.18
2019-03-08T10:24:50.957Z,100942.37
2019-03-08T10:26:07.335Z,100949.13
2019-03-08T10:27:21.410Z,100948.64
2019-03-08T10:28:44.428Z,100950.46
2019-03-08T10:29:58.548Z,100958.27
2019-03-08T10:31:11.180Z,100967.56
2019-03-08T10:32:41.326Z,100960.32
2019-03-08T10:33:56.855Z,100965.98
2019-03-08T10:35:23.922Z,100972.50
2019-03-08T10:36:39.697Z,100981.77
2019-03-08T10:38:00.374Z,100985.37
2019-03-08T10:39:23.996Z,100983.08
2019-03-08T10:40:35.367Z,100986.11
2019-03-08T10:41:52.098Z,100986.22
2019-03-08T10:43:00.981Z,100991.42
2019-03-08T10:44:15.454Z,100995.41
2019-03-08T10:45:45.109Z,100996.73
2019-03-08T10:47:21.142Z,100992.27
2019-03-08T10:48:54.167Z,100991.65
2019-03-08T10:50:08.002Z,100999.59
2019-03-08T10:51:30.876Z,101005.41
2019-03-08T10:52:46.505Z,101003.57
2019-03-08T10:54:13.682Z,101004.53
2019-03-08T10:55:56.037Z,101024.93
2019-03-08T10:57:13.604Z,101017.55
2019-03-08T10:58:37.745Z,101017.44
2019-03-08T10:59:50.840Z,101019.25
2019-03-08T11:01:17.965Z,101024.91
2019-03-08T11:02:33.191Z,101028.89
2019-03-08T11:03:45.172Z,101028.55
2019-03-08T11:05:01.506Z,101025.89
2019-03-08T11:06:14.857Z,101025.05
2019-03-08T11:07:25.966Z,101028.19
2019-03-08T11:08:38.011Z,101025.41
2019-03-08T11:10:11.097Z,101033.63
2019-03-08T11:11:41.329Z,101036.87
2019-03-08T11:12:57.773Z,101031.33
2019-03-08T11:14:18.723Z,101038.59
2019-03-08T11:15:41.506Z,101049.48
2019-03-08T11:17:06.342Z,101054.43
2019-03-08T11:18:24.788Z,101053.22
2019-03-08T11:20:07.199Z,101049.22
2019-03-08T11:21:32.040Z,101048.52
2019-03-08T11:22:54.470Z,101044.65
2019-03-08T11:24:24.668Z,101042.58
2019-03-08T11:25:40.116Z,101048.52
2019-03-08T11:27:04.541Z,101047.81
2019-03-08T11:28:20.880Z,101050.33
2019-03-08T11:29:33.528Z,101052.25
2019-03-08T11:30:56.051Z,101051.77
2019-03-08T11:32:23.030Z,101050.08
2019-03-08T11:33:39.825Z,101054.69
2019-03-08T11:34:56.237Z,101053.98
2019-03-08T11:36:26.074Z,101055.05
2019-03-08T11:37:42.361Z,101050.97
2019-03-08T11:39:06.506Z,101055.55
2019-03-08T11:40:21.031Z,101054.36
2019-03-08T11:41:33.934Z,101055.06
2019-03-08T11:43:01.185Z,101056.38
2019-03-08T11:44:25.404Z,101066.51
2019-03-08T11:45:39.245Z,101063.61
2019-03-08T11:47:06.295Z,101065.77
2019-03-08T11:48:30.795Z,101069.61
2019-03-08T11:50:10.278Z,101064.64
2019-03-08T11:51:43.283Z,101068.59
2019-03-08T11:53:04.331Z,101081.28
2019-03-08T11:54:18.599Z,101074.14
2019-03-08T11:55:48.500Z,101079.58
2019-03-08T11:57:15.457Z,101077.66
2019-03-08T11:58:46.001Z,101081.98
2019-03-08T12:00:09.123Z,101073.48
2019-03-08T12:01:31.727Z,101073.23
2019-03-08T12:02:58.514Z,101070.67
2019-03-08T12:04:15.666Z,101073.52
2019-03-08T12:05:34.283Z,101071.77
2019-03-08T12:07:04.814Z,101066.33
2019-03-08T12:08:20.103Z,101070.11
2019-03-08T12:09:37.464Z,101060.27
2019-03-08T12:11:03.847Z,101070.33
2019-03-08T12:12:35.793Z,101071.17
2019-03-08T12:13:56.198Z,101072.73
2019-03-08T12:15:14.608Z,101073.65
2019-03-08T12:16:32.558Z,101069.16
2019-03-08T12:18:11.758Z,101070.66
2019-03-08T12:19:28.792Z,101072.47
2019-03-08T12:20:49.608Z,101066.34
2019-03-08T12:22:13.674Z,101063.14
2019-03-08T12:23:43.641Z,101071.23
2019-03-08T12:25:04.653Z,101072.30
2019-03-08T12:26:37.663Z,101066.70
2019-03-08T12:28:11.279Z,101065.21
2019-03-08T12:29:44.370Z,101065.84
2019-03-08T12:31:06.824Z,101073.27
2019-03-08T12:32:23.609Z,101071.83
2019-03-08T12:33:41.425Z,101074.23
2019-03-08T12:34:55.664Z,101066.70
2019-03-08T12:36:29.172Z,101082.03
2019-03-08T12:37:56.426Z,101073.71
2019-03-08T12:39:21.508Z,101083.83
2019-03-08T12:40:54.979Z,101080.80
2019-03-08T12:42:18.041Z,101080.95
2019-03-08T12:43:47.881Z,101077.61
2019-03-08T12:45:14.873Z,101068.61
2019-03-08T12:46:37.941Z,101070.59
2019-03-08T12:48:00.577Z,101069.31
2019-03-08T12:49:33.825Z,101077.33
2019-03-08T12:50:48.230Z,101075.30
2019-03-08T12:52:01.860Z,101070.67
2019-03-08T12:53:21.275Z,101073.58
2019-03-08T12:54:45.937Z,101071.25
2019-03-08T12:55:59.115Z,101065.70
2019-03-08T12:57:21.351Z,101064.79
2019-03-08T12:58:39.161Z,101072.53
2019-03-08T13:00:09.209Z,101069.87
2019-03-08T13:01:21.238Z,101073.97
2019-03-08T13:02:41.413Z,101074.28
2019-03-08T13:03:57.334Z,101076.08
2019-03-08T13:05:20.350Z,101072.02
2019-03-08T13:06:43.314Z,101069.52
2019-03-08T13:07:55.454Z,101070.25
2019-03-08T13:09:09.477Z,101060.55
2019-03-08T13:10:14.946Z,101062.16
2019-03-08T13:11:20.234Z,101063.48
2019-03-08T13:12:25.389Z,101056.83
2019-03-08T13:13:30.799Z,101059.12
2019-03-08T13:14:35.931Z,101066.86
2019-03-08T13:15:41.134Z,101065.41
2019-03-08T13:16:46.229Z,101073.25
2019-03-08T13:17:51.379Z,101069.25
2019-03-08T13:18:56.565Z,101066.25
2019-03-08T13:20:01.984Z,101067.10
2019-03-08T13:21:07.154Z,101065.41
2019-03-08T13:22:12.536Z,101063.59
2019-03-08T13:23:17.566Z,101062.38
2019-03-08T13:24:22.865Z,101065.52
2019-03-08T13:25:28.535Z,101069.40
2019-03-08T13:26:33.738Z,101071.22
2019-03-08T13:27:39.059Z,101069.88
2019-03-08T13:28:44.141Z,101065.04
2019-03-08T13:29:49.265Z,101068.55
2019-03-08T13:30:54.404Z,101069.67
2019-03-08T13:31:59.679Z,101070.80
2019-03-08T13:33:04.982Z,101070.06
2019-03-08T13:34:10.095Z,101066.06
2019-03-08T13:35:15.411Z,101068.39
2019-03-08T13:36:20.518Z,101076.02
2019-03-08T13:37:25.771Z,101075.80
2019-03-08T13:38:30.939Z,101074.59
2019-03-08T13:39:39.854Z,101073.41
2019-03-08T13:40:44.881Z,101077.74